Home > Products > Valid Products > TAF

000
FTUS46 KMFR 271100
TAFMFR
TAF
KMFR 271139Z 2712/2812 VRB03KT P6SM SKC
     FM272300 33007KT P6SM SKC
     FM280400 VRB03KT P6SM SKC=



000
FTUS46 KMFR 271100
TAFOTH
TAF
KOTH 271139Z 2712/2812 36003KT P6SM OVC005
     FM271300 36003KT 3SM BR OVC004
     FM271700 34006KT P6SM SCT005 OVC008
     FM272000 35012G18KT P6SM SCT012
     FM280000 35012G18KT P6SM BKN010
     FM280200 35011KT P6SM OVC005
     FM280300 35006KT 3SM BR OVC004=



000
FTUS46 KMFR 271100
TAFLMT
TAF
KLMT 271139Z 2712/2812 VRB03KT P6SM SKC
     FM272100 28006KT P6SM SKC
     FM272300 30008KT P6SM SKC
     FM280400 31004KT P6SM SKC=



000
FTUS46 KMFR 271100
TAFRBG
TAF
KRBG 271139Z 2712/2812 VRB02KT P6SM SKC
     FM272200 35008KT P6SM SKC
     FM280300 36004KT P6SM SKC=



000
FTUS46 KMFR 270500
TAFLMT
TAF
KLMT 270536Z 2706/2806 VRB03KT P6SM SKC
     FM272200 32008KT P6SM FEW100
     FM280400 31004KT P6SM SKC=



000
FTUS46 KMFR 270500
TAFRBG
TAF
KRBG 270536Z 2706/2806 VRB02KT P6SM SKC
     FM272200 35008KT P6SM SKC
     FM280300 36004KT P6SM SKC=



000
FTUS46 KMFR 270500
TAFOTH
TAF
KOTH 270536Z 2706/2806 36008KT 1SM BR OVC002
     FM270800 35004KT 1/2SM FG OVC002
     FM271700 34006KT 6SM BR SCT005 OVC008
     FM272000 35012G19KT P6SM BKN012
     FM280100 35011KT 6SM BR OVC004
     FM280300 35006KT 1SM BR OVC002=



000
FTUS46 KMFR 270500
TAFMFR
TAF
KMFR 270536Z 2706/2806 VRB03KT P6SM SKC
     FM272300 33007KT P6SM SKC
     FM280400 VRB03KT P6SM SKC=



000
FTUS46 KMFR 270000 AAA
TAFOTH
TAF AMD
KOTH 270041Z 2701/2724 33012KT P6SM OVC005
     FM270400 36008KT 5SM BR SCT003 OVC005
     FM271000 35004KT 1/2SM FG OVC002
     FM271600 35006KT 5SM BR SCT005 OVC008
     FM272000 35015G20KT P6SM OVC010=



000
FTUS46 KMFR 262300
TAFRBG
TAF
KRBG 262338Z 2700/2724 36010KT P6SM SKC
     FM270400 36003KT P6SM SKC
     FM272100 01006KT P6SM SKC=



000
FTUS46 KMFR 262300
TAFMFR
TAF
KMFR 262338Z 2700/2724 31007KT P6SM SKC
     FM270400 VRB03KT P6SM SKC
     FM272200 30007KT P6SM SKC=



000
FTUS46 KMFR 262300
TAFOTH
TAF
KOTH 262338Z 2700/2724 35015KT P6SM SKC
     FM270100 35010KT P6SM BKN008
     FM270400 36008KT 5SM BR SCT003 OVC006
     FM271000 35004KT 1/2SM FG OVC002
     FM271600 35006KT 5SM BR SCT005 OVC008
     FM272000 35015G20KT P6SM OVC010=



000
FTUS46 KMFR 262300
TAFLMT
TAF
KLMT 262338Z 2700/2724 36008KT P6SM SKC
     FM270400 VRB03KT P6SM SKC
     FM272100 29005KT P6SM FEW080=



000
FTUS46 KMFR 262200 AAA
TAFOTH
TAF AMD
KOTH 262234Z 2623/2718 35015KT P6SM SKC
     FM270100 35010KT P6SM BKN008
     FM270400 36008KT 5SM BR SCT003 OVC006
     FM271000 35004KT 1SM BR OVC003
     FM271600 35006KT 5SM BR SCT005 OVC008=



000
FTUS46 KMFR 261700
TAFLMT
TAF
KLMT 261720Z 2618/2718 VRB03KT P6SM SKC
     FM262300 36008KT P6SM SKC
     FM270400 VRB03KT P6SM SKC=



000
FTUS46 KMFR 261700
TAFOTH
TAF
KOTH 261720Z 2618/2718 27007KT 5SM BR OVC003
     FM261900 34010KT P6SM SCT005
     FM262100 35016G24KT P6SM FEW008
     FM270200 35014G19KT P6SM BKN008
     FM270400 36008KT 5SM BR SCT003 OVC006
     FM271000 35004KT 1SM BR OVC003
     FM271600 35006KT 5SM BR SCT005 OVC008=



000
FTUS46 KMFR 261700
TAFMFR
TAF
KMFR 261720Z 2618/2718 VRB03KT P6SM SKC
     FM262300 31007KT P6SM SKC
     FM270400 VRB03KT P6SM SKC=



000
FTUS46 KMFR 261700
TAFRBG
TAF
KRBG 261720Z 2618/2718 VRB03KT P6SM SKC
     FM262200 36010KT P6SM SKC
     FM270400 36003KT P6SM SKC=



000
FTUS46 KMFR 261100
TAFMFR
TAF
KMFR 261127Z 2612/2712 VRB02KT P6SM SKC
     FM262300 31007KT P6SM SKC
     FM270400 VRB03KT P6SM SKC=



000
FTUS46 KMFR 261100
TAFLMT
TAF
KLMT 261127Z 2612/2712 VRB03KT P6SM SKC
     FM262300 36007KT P6SM SKC
     FM270400 03004KT P6SM SKC=



000
FTUS46 KMFR 261100
TAFOTH
TAF
KOTH 261127Z 2612/2712 13003KT 1/2SM FG OVC002
      TEMPO 2612/2615 1/4SM FG OVC002
     FM261600 01005KT 3SM BR BKN005
     FM261700 36010KT P6SM SCT005
     FM262000 35016G24KT P6SM FEW008
     FM270100 35014G19KT P6SM BKN008
     FM270300 36012KT 5SM BR SCT003 OVC006=



000
FTUS46 KMFR 261100
TAFRBG
TAF
KRBG 261127Z 2612/2712 VRB03KT P6SM SKC
     FM262100 36010KT P6SM SKC
     FM270400 36003KT P6SM SKC=



000
FTUS46 KMFR 260800 AAA
TAFOTH
TAF AMD
KOTH 260859Z 2609/2706 VRB03KT 3SM BR BKN002
     FM261100 13003KT 1/2SM FG VV002
     FM261700 35010KT P6SM SKC
     FM262000 35016G24KT P6SM SKC
     FM270300 36012KT P6SM OVC006=



000
FTUS46 KMFR 260500
TAFOTH
TAF
KOTH 260522Z 2606/2706 36007KT P6SM SKC
     FM260900 05004KT 5SM BR SCT003
     FM261100 13003KT 1/2SM FG VV002
     FM261700 35010KT P6SM SKC
     FM262000 35016G24KT P6SM SKC
     FM270300 36012KT P6SM OVC006=



000
FTUS46 KMFR 260500
TAFLMT
TAF
KLMT 260522Z 2606/2706 36007KT P6SM SKC=



000
FTUS46 KMFR 260500
TAFMFR
TAF
KMFR 260522Z 2606/2706 31007KT P6SM SKC=



000
FTUS46 KMFR 260500
TAFRBG
TAF
KRBG 260522Z 2606/2706 VRB03KT P6SM SKC
     FM262100 36010KT P6SM SKC
     FM270400 36003KT P6SM SKC=



000
FTUS46 KMFR 252300
TAFLMT
TAF
KLMT 252339Z 2600/2624 34008G15KT P6SM SCT080
     FM260400 08007KT P6SM SKC=



000
FTUS46 KMFR 252300
TAFMFR
TAF
KMFR 252339Z 2600/2624 32009KT P6SM FEW090
     FM260500 08003KT P6SM SKC=



000
FTUS46 KMFR 252300
TAFRBG
TAF
KRBG 252339Z 2600/2624 34010G17KT P6SM SKC
     FM260600 VRB03KT P6SM SKC=



000
FTUS46 KMFR 252300
TAFOTH
TAF
KOTH 252339Z 2600/2624 36013G22KT P6SM SKC
     FM260400 36007KT P6SM SKC
     FM260700 01004KT 5SM BR SCT003
     FM261200 VRB03KT 1/2SM FG VV002
     FM261800 35015G23KT P6SM SKC=



000
FTUS46 KMFR 252200 AAA
TAFOTH
TAF AMD
KOTH 252207Z 2522/2618 36010G18KT P6SM SKC
     FM260400 36007KT P6SM SKC
     FM260900 01004KT 5SM BR SCT003
     FM261200 VRB03KT 1/2SM FG VV002
     FM261700 35009KT P6SM SKC=



000
FTUS46 KMFR 251700 RRA
TAFMFR
TAF
KMFR 251742Z 2518/2618 VRB04KT P6SM SKC
     FM252200 35009KT P6SM FEW090
     FM260500 08003KT P6SM SKC=



000
FTUS46 KMFR 251700 RRA
TAFLMT
TAF
KLMT 251742Z 2518/2618 04007KT P6SM FEW080
     FM252100 02009KT P6SM FEW080
     FM260500 08008KT P6SM SKC=



000
FTUS46 KMFR 251700 RRA
TAFOTH
TAF
KOTH 251742Z 2518/2618 VRB04KT P6SM FEW003
     FM251900 36012G20KT P6SM SKC
     FM252200 35020G28KT P6SM SKC
     FM260400 36012KT P6SM SKC
     FM260900 01004KT 5SM BR SCT003
     FM261200 VRB03KT 1/2SM FG VV002
     FM261700 35009KT P6SM SKC=



000
FTUS46 KMFR 251700 RRA
TAFRBG
TAF
KRBG 251742Z 2518/2618 36003KT P6SM SKC
     FM252200 36010G17KT P6SM SKC
     FM260600 VRB03KT P6SM SKC=



000
FTUS46 KMFR 251700 AAC
TAFOTH
TAF AMD
KOTH 251711Z 2517/2612 VRB03KT P6SM SCT003
     FM251800 36012G20KT P6SM SKC
     FM252200 35020G28KT P6SM SKC
     FM260400 36012KT P6SM SKC
     FM260700 01004KT 5SM BR SCT003 OVC007
     FM261100 VRB03KT 1/2SM FG VV002=



000
FTUS46 KMFR 251500 AAB
TAFOTH
TAF AMD
KOTH 251558Z 2516/2612 VRB03KT 3SM BR SCT002 OVC004
      TEMPO 2516/2517 1SM BR BKN002
     FM251700 34007KT P6SM BKN010
     FM251800 36014G23KT P6SM SKC
     FM252200 35021G30KT P6SM SKC
     FM260400 36013KT P6SM SKC
     FM260700 02004KT P6SM SKC=



000
FTUS46 KMFR 251500 AAA
TAFOTH
TAF AMD
KOTH 251504Z 2515/2612 00000KT 1/4SM FG OVC002
     FM251600 VRB03KT 2SM BR SCT002 OVC004
     FM251700 34007KT P6SM BKN010
     FM251800 36014G23KT P6SM SKC
     FM252200 35021G30KT P6SM SKC
     FM260400 36013KT P6SM SKC
     FM260700 02004KT P6SM SKC=



000
FTUS46 KMFR 251100
TAFMFR
TAF
KMFR 251138Z 2512/2612 VRB03KT P6SM SKC
     FM252200 32010KT P6SM SKC
     FM260400 35004KT P6SM SKC=



000
FTUS46 KMFR 251100
TAFRBG
TAF
KRBG 251138Z 2512/2612 VRB03KT P6SM SCT012
     FM251600 01005KT P6SM SKC
     FM252200 36011G17KT P6SM SKC
     FM260400 36005KT P6SM SKC=



000
FTUS46 KMFR 251100
TAFLMT
TAF
KLMT 251138Z 2512/2612 36006KT P6SM SKC
     FM251700 03010KT P6SM SKC
     FM260100 36012G18KT P6SM FEW100
     FM260500 04007KT P6SM SKC=



000
FTUS46 KMFR 251100
TAFOTH
TAF
KOTH 251138Z 2512/2612 01005KT 1SM BR OVC002
     FM251700 34007KT P6SM BKN010
     FM251800 36014G23KT P6SM SKC
     FM252200 35021G30KT P6SM SKC
     FM260400 36013KT P6SM SKC
     FM260700 02004KT P6SM SKC=



000
FTUS46 KMFR 250500
TAFLMT
TAF
KLMT 250534Z 2506/2606 36005KT P6SM SKC
     FM251800 04010KT P6SM FEW100
     FM260100 36012G18KT P6SM FEW100
     FM260500 04007KT P6SM SKC=



000
FTUS46 KMFR 250500
TAFMFR
TAF
KMFR 250534Z 2506/2606 VRB03KT P6SM SKC
     FM252200 32010KT P6SM SKC
     FM260400 35005KT P6SM SKC=



000
FTUS46 KMFR 250500
TAFRBG
TAF
KRBG 250534Z 2506/2606 32006KT P6SM SKC
     FM251200 VRB03KT P6SM SCT007 BKN015
     FM251600 01005KT P6SM FEW010
     FM252200 36011G17KT P6SM SKC
     FM260400 36005KT P6SM SKC=



000
FTUS46 KMFR 250500
TAFOTH
TAF
KOTH 250534Z 2506/2606 36010KT P6SM OVC005
      TEMPO 2506/2508 FEW005
     FM251000 01005KT 1SM BR OVC002
     FM251700 34007KT P6SM BKN010
     FM251800 35009G15KT P6SM SCT010
     FM252100 36020G26KT P6SM SKC
     FM260400 36013G19KT P6SM SKC=



000
FTUS46 KMFR 250200 AAA
TAFLMT
TAF AMD
KLMT 250211Z 2502/2524 31014KT P6SM SKC
     FM250600 35005KT P6SM SKC
     FM252000 04007KT P6SM FEW100=



000
FTUS46 KMFR 250200 AAA
TAFMFR
TAF AMD
KMFR 250209Z 2502/2524 36012KT P6SM FEW060
     FM250400 35005KT P6SM SKC
     FM252200 32008KT P6SM SKC=



000
FTUS46 KMFR 250200 AAA
TAFOTH
TAF AMD
KOTH 250207Z 2502/2524 35009KT P6SM OVC005
     FM251000 01005KT 1SM BR OVC002
     FM251700 35009G15KT P6SM SCT005
     FM252100 35020G26KT P6SM SKC=



000
FTUS46 KMFR 242300 RRA
TAFMFR
TAF
KMFR 242341Z 2500/2524 30011G17KT P6SM FEW060 SCT120
     FM250400 35007KT P6SM SKC
     FM250900 VRB03KT P6SM SKC=



000
FTUS46 KMFR 242300 RRA
TAFLMT
TAF
KLMT 242341Z 2500/2524 31012KT P6SM SKC
     FM250600 35006KT P6SM SCT060
     FM251400 04007KT P6SM SKC=



000
FTUS46 KMFR 242300 RRA
TAFOTH
TAF
KOTH 242341Z 2500/2524 35015G20KT P6SM OVC006
     FM250300 35012KT P6SM OVC005
     FM251400 01005KT 1SM BR OVC002
     FM251600 02007KT P6SM SCT009
     FM252000 35018G26KT P6SM SKC=



000
FTUS46 KMFR 242300 RRA
TAFRBG
TAF
KRBG 242341Z 2500/2524 31009KT P6SM SKC
     FM250700 VRB03KT P6SM SCT007 BKN015
     FM251200 36005KT P6SM FEW010=



000
FTUS46 KMFR 241700 AAA
TAFOTH
TAF AMD
KOTH 241759Z 2418/2518 34012KT P6SM SCT010
      TEMPO 2418/2419 33005KT BKN010
     FM242100 35019G26KT P6SM FEW015
     FM242300 35015KT P6SM SCT007 BKN015 OVC025
     FM250300 35012KT P6SM BKN005 OVC010
     FM250600 35007KT 5SM BR SCT003 BKN005 OVC010
     FM251400 01005KT 1SM BR OVC003
     FM251600 02007KT P6SM SCT009=



000
FTUS46 KMFR 241700 AAA
TAFRBG
TAF AMD
KRBG 241748Z 2418/2518 01006KT P6SM SCT300
     FM242300 35010G19KT P6SM FEW060 SCT250
     FM250400 34004KT P6SM SKC
     FM250700 VRB03KT P6SM SCT007 BKN015
     FM251200 36005KT P6SM FEW010=



000
FTUS46 KMFR 241700 RRA
TAFOTH
TAF
KOTH 241743Z 2418/2518 34012KT P6SM SCT010
     FM242100 35018G26KT P6SM SCT007 BKN015
     FM250300 36012KT P6SM OVC007
     FM250700 35007KT 6SM BR OVC005=



000
FTUS46 KMFR 241700 RRA
TAFMFR
TAF
KMFR 241743Z 2418/2518 VRB03KT P6SM SKC
     FM242300 31011G17KT P6SM FEW060 SCT250
     FM250400 35007KT P6SM SKC
     FM250900 VRB03KT P6SM SKC=



000
FTUS46 KMFR 241700 RRA
TAFLMT
TAF
KLMT 241743Z 2418/2518 VRB03KT P6SM FEW300
     FM242100 29009KT P6SM FEW070 SCT250
     FM250000 31012G20KT P6SM FEW070 SCT250
     FM250600 35006KT P6SM SCT060
     FM251400 04007KT P6SM SKC=



000
FTUS46 KMFR 241700 RRA
TAFRBG
TAF
KRBG 241743Z 2418/2518 01006KT P6SM SCT300
     FM242300 35010G19KT P6SM FEW060 SCT250
     FM250400 34004KT P6SM SKC
     FM250700 VRB03KT P6SM BKN015=



    US Dept of Commerce
    National Oceanic and Atmospheric Administration
    National Weather Service
    1325 East West Highway
    Silver Spring, MD 20910
    Page Author: NWS Internet Services Team
Disclaimer
Information Quality
Credits
Glossary
Privacy Policy
Freedom of Information Act (FOIA)
About Us
Career Opportunities